Bluff Springs, Texas
Current Conditions -  °F | °C
As of 9:53 AM on Friday 19 Dec 2014 (Local Time) from KAUS Reporting Station
Overcast Overcast  
Wind Chill: 51°   Ceiling: 1000
Heat Index: 51°   Visibility: 10mi
Dew Point: 51°   Wind: 14mph
Humidity: 100%   Direction: 10°N
Pressure: 30.13"   Gusts: NA
Location:  30.1791°N, 97.7294°W
Report Text: KAUS 191553Z 01012KT 10SM BKN010 OVC048 11/11 A3013 RMK AO2 SLP203 T01060106 $
Loading
Personal Weather Stations






























Interactive Weather Map New forecast layout! Learn more

10-Day Weather Forecast

Advertisements
Track Severe Weather on mobile